sensor_id;sensor_type;location;lat;lon;timestamp;P1;durP1;ratioP1;P2;durP2;ratioP2
43803;SDS011;29430;52.924;-2.388;2023-11-22T00:01:11;3.30;;;1.25;;
43803;SDS011;29430;52.924;-2.388;2023-11-22T00:06:03;3.03;;;1.17;;
43803;SDS011;29430;52.924;-2.388;2023-11-22T00:10:56;4.18;;;1.65;;
43803;SDS011;29430;52.924;-2.388;2023-11-22T00:15:48;3.95;;;1.00;;
43803;SDS011;29430;52.924;-2.388;2023-11-22T00:20:41;3.53;;;0.85;;
43803;SDS011;29430;52.924;-2.388;2023-11-22T00:25:33;3.70;;;1.20;;
43803;SDS011;29430;52.924;-2.388;2023-11-22T00:30:25;3.53;;;0.75;;
43803;SDS011;29430;52.924;-2.388;2023-11-22T00:35:17;2.80;;;0.70;;
43803;SDS011;29430;52.924;-2.388;2023-11-22T00:40:09;3.45;;;0.80;;
43803;SDS011;29430;52.924;-2.388;2023-11-22T00:45:05;2.75;;;0.80;;
43803;SDS011;29430;52.924;-2.388;2023-11-22T00:49:57;4.10;;;0.70;;
43803;SDS011;29430;52.924;-2.388;2023-11-22T00:54:49;2.30;;;0.63;;
43803;SDS011;29430;52.924;-2.388;2023-11-22T00:59:41;1.30;;;0.50;;
43803;SDS011;29430;52.924;-2.388;2023-11-22T01:04:33;3.17;;;0.60;;
43803;SDS011;29430;52.924;-2.388;2023-11-22T01:09:27;1.92;;;0.60;;
43803;SDS011;29430;52.924;-2.388;2023-11-22T01:14:20;1.23;;;0.38;;
43803;SDS011;29430;52.924;-2.388;2023-11-22T01:19:13;1.60;;;0.43;;
43803;SDS011;29430;52.924;-2.388;2023-11-22T01:24:05;1.52;;;0.40;;
43803;SDS011;29430;52.924;-2.388;2023-11-22T01:28:57;3.42;;;0.50;;
43803;SDS011;29430;52.924;-2.388;2023-11-22T01:33:50;2.15;;;0.47;;
43803;SDS011;29430;52.924;-2.388;2023-11-22T01:38:41;1.65;;;0.40;;
43803;SDS011;29430;52.924;-2.388;2023-11-22T01:43:35;1.80;;;0.50;;
43803;SDS011;29430;52.924;-2.388;2023-11-22T01:48:27;1.75;;;0.40;;
43803;SDS011;29430;52.924;-2.388;2023-11-22T01:53:19;1.20;;;0.40;;
43803;SDS011;29430;52.924;-2.388;2023-11-22T01:58:13;2.17;;;0.60;;
43803;SDS011;29430;52.924;-2.388;2023-11-22T02:03:04;1.55;;;0.40;;
43803;SDS011;29430;52.924;-2.388;2023-11-22T02:07:56;2.20;;;0.70;;
43803;SDS011;29430;52.924;-2.388;2023-11-22T02:12:49;3.13;;;0.50;;
43803;SDS011;29430;52.924;-2.388;2023-11-22T02:17:40;5.13;;;0.50;;
43803;SDS011;29430;52.924;-2.388;2023-11-22T02:22:32;3.90;;;0.40;;
43803;SDS011;29430;52.924;-2.388;2023-11-22T02:27:24;2.03;;;0.40;;
43803;SDS011;29430;52.924;-2.388;2023-11-22T02:32:16;1.42;;;0.30;;
43803;SDS011;29430;52.924;-2.388;2023-11-22T02:37:08;1.83;;;0.35;;
43803;SDS011;29430;52.924;-2.388;2023-11-22T02:42:00;3.40;;;0.45;;
43803;SDS011;29430;52.924;-2.388;2023-11-22T02:46:52;0.88;;;0.30;;
43803;SDS011;29430;52.924;-2.388;2023-11-22T02:51:44;1.45;;;0.30;;
43803;SDS011;29430;52.924;-2.388;2023-11-22T02:56:37;0.68;;;0.20;;
43803;SDS011;29430;52.924;-2.388;2023-11-22T03:01:29;1.30;;;0.30;;
43803;SDS011;29430;52.924;-2.388;2023-11-22T03:06:21;2.38;;;0.40;;
43803;SDS011;29430;52.924;-2.388;2023-11-22T03:11:13;1.42;;;0.40;;
43803;SDS011;29430;52.924;-2.388;2023-11-22T03:16:04;1.95;;;0.40;;
43803;SDS011;29430;52.924;-2.388;2023-11-22T03:20:56;1.85;;;0.43;;
43803;SDS011;29430;52.924;-2.388;2023-11-22T03:25:48;4.90;;;0.50;;
43803;SDS011;29430;52.924;-2.388;2023-11-22T03:30:40;2.85;;;0.55;;
43803;SDS011;29430;52.924;-2.388;2023-11-22T03:35:32;3.92;;;0.50;;
43803;SDS011;29430;52.924;-2.388;2023-11-22T03:40:23;4.00;;;0.40;;
43803;SDS011;29430;52.924;-2.388;2023-11-22T03:45:15;3.03;;;0.50;;
43803;SDS011;29430;52.924;-2.388;2023-11-22T03:50:07;1.33;;;0.50;;
43803;SDS011;29430;52.924;-2.388;2023-11-22T03:54:59;5.57;;;0.50;;
43803;SDS011;29430;52.924;-2.388;2023-11-22T03:59:51;1.95;;;0.40;;
43803;SDS011;29430;52.924;-2.388;2023-11-22T04:04:42;2.63;;;0.30;;
43803;SDS011;29430;52.924;-2.388;2023-11-22T04:09:34;3.03;;;0.40;;
43803;SDS011;29430;52.924;-2.388;2023-11-22T04:14:26;1.15;;;0.30;;
43803;SDS011;29430;52.924;-2.388;2023-11-22T04:19:21;1.33;;;0.32;;
43803;SDS011;29430;52.924;-2.388;2023-11-22T04:24:13;4.35;;;0.40;;
43803;SDS011;29430;52.924;-2.388;2023-11-22T04:29:05;2.85;;;0.40;;
43803;SDS011;29430;52.924;-2.388;2023-11-22T04:33:57;2.03;;;0.30;;
43803;SDS011;29430;52.924;-2.388;2023-11-22T04:38:50;1.75;;;0.30;;
43803;SDS011;29430;52.924;-2.388;2023-11-22T04:43:42;1.15;;;0.30;;
43803;SDS011;29430;52.924;-2.388;2023-11-22T04:48:34;1.33;;;0.30;;
43803;SDS011;29430;52.924;-2.388;2023-11-22T04:53:28;4.15;;;0.30;;
43803;SDS011;29430;52.924;-2.388;2023-11-22T04:58:20;4.13;;;0.30;;
43803;SDS011;29430;52.924;-2.388;2023-11-22T05:03:11;1.35;;;0.20;;
43803;SDS011;29430;52.924;-2.388;2023-11-22T05:08:04;1.25;;;0.30;;
43803;SDS011;29430;52.924;-2.388;2023-11-22T05:12:56;1.00;;;0.20;;
43803;SDS011;29430;52.924;-2.388;2023-11-22T05:17:51;2.63;;;0.30;;
43803;SDS011;29430;52.924;-2.388;2023-11-22T05:22:42;2.38;;;0.30;;
43803;SDS011;29430;52.924;-2.388;2023-11-22T05:27:34;2.05;;;0.20;;
43803;SDS011;29430;52.924;-2.388;2023-11-22T05:32:27;3.40;;;0.20;;
43803;SDS011;29430;52.924;-2.388;2023-11-22T05:42:12;0.95;;;0.22;;
43803;SDS011;29430;52.924;-2.388;2023-11-22T05:47:04;1.98;;;0.20;;
43803;SDS011;29430;52.924;-2.388;2023-11-22T05:51:56;1.92;;;0.20;;
43803;SDS011;29430;52.924;-2.388;2023-11-22T05:56:47;3.83;;;0.35;;
43803;SDS011;29430;52.924;-2.388;2023-11-22T06:01:40;2.00;;;0.20;;
43803;SDS011;29430;52.924;-2.388;2023-11-22T06:06:31;1.73;;;0.20;;
43803;SDS011;29430;52.924;-2.388;2023-11-22T06:11:23;0.95;;;0.20;;
43803;SDS011;29430;52.924;-2.388;2023-11-22T06:16:16;3.28;;;0.75;;
43803;SDS011;29430;52.924;-2.388;2023-11-22T06:21:09;4.00;;;0.45;;
43803;SDS011;29430;52.924;-2.388;2023-11-22T06:26:01;5.30;;;0.30;;
43803;SDS011;29430;52.924;-2.388;2023-11-22T06:30:53;4.95;;;0.30;;
43803;SDS011;29430;52.924;-2.388;2023-11-22T06:35:45;1.58;;;0.30;;
43803;SDS011;29430;52.924;-2.388;2023-11-22T06:40:37;1.40;;;0.20;;
43803;SDS011;29430;52.924;-2.388;2023-11-22T06:45:29;1.58;;;0.30;;
43803;SDS011;29430;52.924;-2.388;2023-11-22T06:50:22;1.52;;;0.22;;
43803;SDS011;29430;52.924;-2.388;2023-11-22T06:55:14;2.25;;;0.20;;
43803;SDS011;29430;52.924;-2.388;2023-11-22T07:00:06;3.28;;;0.30;;
43803;SDS011;29430;52.924;-2.388;2023-11-22T07:05:01;2.22;;;0.20;;
43803;SDS011;29430;52.924;-2.388;2023-11-22T07:10:01;3.13;;;0.40;;
43803;SDS011;29430;52.924;-2.388;2023-11-22T07:14:53;2.67;;;0.40;;
43803;SDS011;29430;52.924;-2.388;2023-11-22T07:19:45;3.97;;;0.38;;
43803;SDS011;29430;52.924;-2.388;2023-11-22T07:24:39;4.65;;;0.30;;
43803;SDS011;29430;52.924;-2.388;2023-11-22T07:29:34;3.53;;;0.32;;
43803;SDS011;29430;52.924;-2.388;2023-11-22T07:34:25;3.78;;;0.30;;
43803;SDS011;29430;52.924;-2.388;2023-11-22T07:39:17;2.97;;;0.30;;
43803;SDS011;29430;52.924;-2.388;2023-11-22T07:44:11;2.53;;;0.20;;
43803;SDS011;29430;52.924;-2.388;2023-11-22T07:49:04;4.50;;;0.30;;
43803;SDS011;29430;52.924;-2.388;2023-11-22T07:53:56;2.97;;;0.52;;
43803;SDS011;29430;52.924;-2.388;2023-11-22T07:58:48;4.20;;;0.30;;
43803;SDS011;29430;52.924;-2.388;2023-11-22T08:03:39;7.10;;;0.73;;
43803;SDS011;29430;52.924;-2.388;2023-11-22T08:08:38;2.25;;;0.30;;
43803;SDS011;29430;52.924;-2.388;2023-11-22T08:13:31;3.22;;;0.30;;
43803;SDS011;29430;52.924;-2.388;2023-11-22T08:18:23;6.13;;;0.38;;
43803;SDS011;29430;52.924;-2.388;2023-11-22T08:23:15;4.40;;;0.30;;
43803;SDS011;29430;52.924;-2.388;2023-11-22T08:28:07;3.25;;;0.32;;
43803;SDS011;29430;52.924;-2.388;2023-11-22T08:32:59;2.72;;;0.30;;
43803;SDS011;29430;52.924;-2.388;2023-11-22T08:37:51;4.85;;;0.70;;
43803;SDS011;29430;52.924;-2.388;2023-11-22T08:42:43;6.88;;;0.30;;
43803;SDS011;29430;52.924;-2.388;2023-11-22T08:47:35;3.95;;;0.30;;
43803;SDS011;29430;52.924;-2.388;2023-11-22T08:52:28;2.83;;;0.28;;
43803;SDS011;29430;52.924;-2.388;2023-11-22T08:57:22;3.03;;;0.20;;
43803;SDS011;29430;52.924;-2.388;2023-11-22T09:02:14;2.28;;;0.25;;
43803;SDS011;29430;52.924;-2.388;2023-11-22T09:07:07;4.47;;;0.20;;
43803;SDS011;29430;52.924;-2.388;2023-11-22T09:12:01;7.22;;;0.50;;
43803;SDS011;29430;52.924;-2.388;2023-11-22T09:16:53;3.00;;;0.30;;
43803;SDS011;29430;52.924;-2.388;2023-11-22T09:21:46;3.78;;;0.30;;
43803;SDS011;29430;52.924;-2.388;2023-11-22T09:26:38;4.45;;;0.22;;
43803;SDS011;29430;52.924;-2.388;2023-11-22T09:31:30;2.85;;;0.30;;
43803;SDS011;29430;52.924;-2.388;2023-11-22T09:36:22;5.05;;;0.20;;
43803;SDS011;29430;52.924;-2.388;2023-11-22T09:41:16;3.20;;;0.30;;
43803;SDS011;29430;52.924;-2.388;2023-11-22T09:46:09;3.03;;;0.30;;
43803;SDS011;29430;52.924;-2.388;2023-11-22T09:51:15;2.53;;;0.30;;
43803;SDS011;29430;52.924;-2.388;2023-11-22T09:56:15;13.18;;;2.75;;
43803;SDS011;29430;52.924;-2.388;2023-11-22T10:01:07;11.15;;;2.40;;
43803;SDS011;29430;52.924;-2.388;2023-11-22T10:06:00;2.90;;;0.30;;
43803;SDS011;29430;52.924;-2.388;2023-11-22T10:10:51;2.97;;;0.30;;
43803;SDS011;29430;52.924;-2.388;2023-11-22T10:15:46;3.90;;;0.30;;
43803;SDS011;29430;52.924;-2.388;2023-11-22T10:20:40;3.13;;;0.32;;
43803;SDS011;29430;52.924;-2.388;2023-11-22T10:25:33;2.88;;;0.20;;
43803;SDS011;29430;52.924;-2.388;2023-11-22T10:30:24;5.75;;;0.40;;
43803;SDS011;29430;52.924;-2.388;2023-11-22T10:35:19;5.38;;;0.30;;
43803;SDS011;29430;52.924;-2.388;2023-11-22T10:40:14;6.22;;;0.50;;
43803;SDS011;29430;52.924;-2.388;2023-11-22T10:45:07;5.57;;;0.30;;
43803;SDS011;29430;52.924;-2.388;2023-11-22T10:50:00;3.42;;;0.30;;
43803;SDS011;29430;52.924;-2.388;2023-11-22T10:54:54;4.32;;;0.47;;
43803;SDS011;29430;52.924;-2.388;2023-11-22T10:59:54;3.38;;;0.40;;
43803;SDS011;29430;52.924;-2.388;2023-11-22T11:04:47;2.53;;;0.55;;
43803;SDS011;29430;52.924;-2.388;2023-11-22T11:09:49;2.97;;;0.20;;
43803;SDS011;29430;52.924;-2.388;2023-11-22T11:14:42;1.55;;;0.20;;
43803;SDS011;29430;52.924;-2.388;2023-11-22T11:19:38;1.88;;;0.20;;
43803;SDS011;29430;52.924;-2.388;2023-11-22T11:24:33;4.70;;;1.05;;
43803;SDS011;29430;52.924;-2.388;2023-11-22T11:29:31;0.77;;;0.20;;
43803;SDS011;29430;52.924;-2.388;2023-11-22T11:39:24;1.42;;;0.40;;
43803;SDS011;29430;52.924;-2.388;2023-11-22T11:44:21;2.50;;;0.30;;
43803;SDS011;29430;52.924;-2.388;2023-11-22T11:49:12;3.92;;;0.30;;
43803;SDS011;29430;52.924;-2.388;2023-11-22T11:54:07;4.00;;;0.50;;
43803;SDS011;29430;52.924;-2.388;2023-11-22T11:59:01;2.22;;;0.20;;
43803;SDS011;29430;52.924;-2.388;2023-11-22T12:03:53;1.88;;;0.20;;
43803;SDS011;29430;52.924;-2.388;2023-11-22T12:08:46;0.82;;;0.25;;
43803;SDS011;29430;52.924;-2.388;2023-11-22T12:13:39;3.22;;;0.20;;
43803;SDS011;29430;52.924;-2.388;2023-11-22T12:18:41;3.45;;;0.20;;
43803;SDS011;29430;52.924;-2.388;2023-11-22T12:23:34;3.92;;;0.30;;
43803;SDS011;29430;52.924;-2.388;2023-11-22T12:28:27;2.78;;;0.20;;
43803;SDS011;29430;52.924;-2.388;2023-11-22T12:33:19;0.45;;;0.20;;
43803;SDS011;29430;52.924;-2.388;2023-11-22T12:38:12;1.30;;;0.10;;
43803;SDS011;29430;52.924;-2.388;2023-11-22T12:43:04;1.30;;;0.17;;
43803;SDS011;29430;52.924;-2.388;2023-11-22T12:47:57;0.68;;;0.20;;
43803;SDS011;29430;52.924;-2.388;2023-11-22T12:52:52;3.08;;;0.17;;
43803;SDS011;29430;52.924;-2.388;2023-11-22T12:57:44;0.43;;;0.10;;
43803;SDS011;29430;52.924;-2.388;2023-11-22T13:02:47;1.83;;;0.17;;
43803;SDS011;29430;52.924;-2.388;2023-11-22T13:07:53;1.00;;;0.10;;
43803;SDS011;29430;52.924;-2.388;2023-11-22T13:12:45;2.45;;;0.10;;
43803;SDS011;29430;52.924;-2.388;2023-11-22T13:17:37;0.63;;;0.10;;
43803;SDS011;29430;52.924;-2.388;2023-11-22T13:22:30;0.47;;;0.10;;
43803;SDS011;29430;52.924;-2.388;2023-11-22T13:27:22;2.45;;;0.10;;
43803;SDS011;29430;52.924;-2.388;2023-11-22T13:32:14;1.05;;;0.20;;
43803;SDS011;29430;52.924;-2.388;2023-11-22T13:37:09;1.20;;;0.10;;
43803;SDS011;29430;52.924;-2.388;2023-11-22T13:42:01;0.70;;;0.10;;
43803;SDS011;29430;52.924;-2.388;2023-11-22T13:46:52;1.00;;;0.10;;
43803;SDS011;29430;52.924;-2.388;2023-11-22T13:51:44;0.50;;;0.10;;
43803;SDS011;29430;52.924;-2.388;2023-11-22T13:56:36;0.88;;;0.10;;
43803;SDS011;29430;52.924;-2.388;2023-11-22T14:01:27;0.40;;;0.10;;
43803;SDS011;29430;52.924;-2.388;2023-11-22T14:06:19;0.93;;;0.10;;
43803;SDS011;29430;52.924;-2.388;2023-11-22T14:11:11;0.30;;;0.00;;
43803;SDS011;29430;52.924;-2.388;2023-11-22T14:16:04;0.50;;;0.10;;
43803;SDS011;29430;52.924;-2.388;2023-11-22T14:20:56;1.27;;;0.00;;
43803;SDS011;29430;52.924;-2.388;2023-11-22T14:25:48;0.20;;;0.00;;
43803;SDS011;29430;52.924;-2.388;2023-11-22T14:30:40;0.88;;;0.03;;
43803;SDS011;29430;52.924;-2.388;2023-11-22T14:35:33;0.30;;;0.00;;
43803;SDS011;29430;52.924;-2.388;2023-11-22T14:40:26;1.08;;;0.10;;
43803;SDS011;29430;52.924;-2.388;2023-11-22T14:45:18;0.38;;;0.00;;
43803;SDS011;29430;52.924;-2.388;2023-11-22T14:50:11;0.45;;;0.00;;
43803;SDS011;29430;52.924;-2.388;2023-11-22T14:55:06;1.52;;;0.10;;
43803;SDS011;29430;52.924;-2.388;2023-11-22T14:59:58;1.17;;;0.08;;
43803;SDS011;29430;52.924;-2.388;2023-11-22T15:04:49;0.10;;;0.00;;
43803;SDS011;29430;52.924;-2.388;2023-11-22T15:09:41;0.60;;;0.10;;
43803;SDS011;29430;52.924;-2.388;2023-11-22T15:14:33;0.35;;;0.10;;
43803;SDS011;29430;52.924;-2.388;2023-11-22T15:19:25;1.35;;;0.10;;
43803;SDS011;29430;52.924;-2.388;2023-11-22T15:24:19;0.47;;;0.10;;
43803;SDS011;29430;52.924;-2.388;2023-11-22T15:29:11;0.77;;;0.00;;
43803;SDS011;29430;52.924;-2.388;2023-11-22T15:34:03;0.20;;;0.00;;
43803;SDS011;29430;52.924;-2.388;2023-11-22T15:38:56;2.70;;;0.10;;
43803;SDS011;29430;52.924;-2.388;2023-11-22T15:43:47;1.00;;;0.00;;
43803;SDS011;29430;52.924;-2.388;2023-11-22T15:48:39;1.17;;;0.10;;
43803;SDS011;29430;52.924;-2.388;2023-11-22T15:53:32;0.50;;;0.00;;
43803;SDS011;29430;52.924;-2.388;2023-11-22T15:58:24;0.57;;;0.03;;
43803;SDS011;29430;52.924;-2.388;2023-11-22T16:03:15;0.75;;;0.00;;
43803;SDS011;29430;52.924;-2.388;2023-11-22T16:08:09;0.30;;;0.00;;
43803;SDS011;29430;52.924;-2.388;2023-11-22T16:13:01;1.23;;;0.10;;
43803;SDS011;29430;52.924;-2.388;2023-11-22T16:17:53;1.38;;;0.00;;
43803;SDS011;29430;52.924;-2.388;2023-11-22T16:22:47;0.45;;;0.00;;
43803;SDS011;29430;52.924;-2.388;2023-11-22T16:27:41;0.85;;;0.10;;
43803;SDS011;29430;52.924;-2.388;2023-11-22T16:32:33;1.00;;;0.10;;
43803;SDS011;29430;52.924;-2.388;2023-11-22T16:37:24;1.38;;;0.38;;
43803;SDS011;29430;52.924;-2.388;2023-11-22T16:42:16;1.83;;;0.45;;
43803;SDS011;29430;52.924;-2.388;2023-11-22T16:47:11;1.80;;;0.30;;
43803;SDS011;29430;52.924;-2.388;2023-11-22T16:52:08;2.63;;;0.25;;
43803;SDS011;29430;52.924;-2.388;2023-11-22T16:57:01;4.63;;;1.02;;
43803;SDS011;29430;52.924;-2.388;2023-11-22T17:01:53;2.22;;;0.60;;
43803;SDS011;29430;52.924;-2.388;2023-11-22T17:06:45;1.80;;;0.20;;
43803;SDS011;29430;52.924;-2.388;2023-11-22T17:11:37;1.10;;;0.20;;
43803;SDS011;29430;52.924;-2.388;2023-11-22T17:16:29;1.95;;;0.38;;
43803;SDS011;29430;52.924;-2.388;2023-11-22T17:21:23;0.80;;;0.20;;
43803;SDS011;29430;52.924;-2.388;2023-11-22T17:26:16;1.35;;;0.20;;
43803;SDS011;29430;52.924;-2.388;2023-11-22T17:31:07;1.13;;;0.17;;
43803;SDS011;29430;52.924;-2.388;2023-11-22T17:35:59;0.90;;;0.17;;
43803;SDS011;29430;52.924;-2.388;2023-11-22T17:40:51;1.02;;;0.20;;
43803;SDS011;29430;52.924;-2.388;2023-11-22T17:45:43;2.63;;;0.60;;
43803;SDS011;29430;52.924;-2.388;2023-11-22T17:50:35;3.25;;;1.70;;
43803;SDS011;29430;52.924;-2.388;2023-11-22T17:55:27;5.18;;;2.70;;
43803;SDS011;29430;52.924;-2.388;2023-11-22T18:00:20;4.28;;;1.52;;
43803;SDS011;29430;52.924;-2.388;2023-11-22T18:05:12;2.60;;;1.20;;
43803;SDS011;29430;52.924;-2.388;2023-11-22T18:10:04;3.17;;;0.82;;
43803;SDS011;29430;52.924;-2.388;2023-11-22T18:14:56;2.85;;;1.00;;
43803;SDS011;29430;52.924;-2.388;2023-11-22T18:19:48;4.13;;;1.17;;
43803;SDS011;29430;52.924;-2.388;2023-11-22T18:24:40;2.05;;;0.50;;
43803;SDS011;29430;52.924;-2.388;2023-11-22T18:29:32;1.52;;;0.40;;
43803;SDS011;29430;52.924;-2.388;2023-11-22T18:34:24;1.60;;;0.30;;
43803;SDS011;29430;52.924;-2.388;2023-11-22T18:44:13;1.30;;;0.40;;
43803;SDS011;29430;52.924;-2.388;2023-11-22T18:49:05;2.05;;;0.35;;
43803;SDS011;29430;52.924;-2.388;2023-11-22T18:53:59;2.50;;;0.40;;
43803;SDS011;29430;52.924;-2.388;2023-11-22T18:58:51;2.78;;;0.60;;
43803;SDS011;29430;52.924;-2.388;2023-11-22T19:03:44;2.10;;;0.30;;
43803;SDS011;29430;52.924;-2.388;2023-11-22T19:08:36;1.02;;;0.30;;
43803;SDS011;29430;52.924;-2.388;2023-11-22T19:13:28;3.70;;;0.40;;
43803;SDS011;29430;52.924;-2.388;2023-11-22T19:18:21;1.15;;;0.20;;
43803;SDS011;29430;52.924;-2.388;2023-11-22T19:23:13;0.98;;;0.20;;
43803;SDS011;29430;52.924;-2.388;2023-11-22T19:28:05;0.50;;;0.10;;
43803;SDS011;29430;52.924;-2.388;2023-11-22T19:32:59;2.40;;;0.10;;
43803;SDS011;29430;52.924;-2.388;2023-11-22T19:37:53;1.05;;;0.20;;
43803;SDS011;29430;52.924;-2.388;2023-11-22T19:42:44;0.98;;;0.20;;
43803;SDS011;29430;52.924;-2.388;2023-11-22T19:47:36;0.57;;;0.20;;
43803;SDS011;29430;52.924;-2.388;2023-11-22T19:52:30;0.82;;;0.20;;
43803;SDS011;29430;52.924;-2.388;2023-11-22T19:57:22;1.48;;;0.20;;
43803;SDS011;29430;52.924;-2.388;2023-11-22T20:02:14;0.80;;;0.30;;
43803;SDS011;29430;52.924;-2.388;2023-11-22T20:07:06;1.45;;;0.30;;
43803;SDS011;29430;52.924;-2.388;2023-11-22T20:11:58;0.75;;;0.20;;
43803;SDS011;29430;52.924;-2.388;2023-11-22T20:16:49;0.43;;;0.20;;
43803;SDS011;29430;52.924;-2.388;2023-11-22T20:21:41;0.75;;;0.20;;
43803;SDS011;29430;52.924;-2.388;2023-11-22T20:26:34;0.88;;;0.20;;
43803;SDS011;29430;52.924;-2.388;2023-11-22T20:31:26;3.85;;;0.22;;
43803;SDS011;29430;52.924;-2.388;2023-11-22T20:36:18;1.02;;;0.20;;
43803;SDS011;29430;52.924;-2.388;2023-11-22T20:41:10;1.52;;;0.30;;
43803;SDS011;29430;52.924;-2.388;2023-11-22T20:46:05;2.88;;;1.10;;
43803;SDS011;29430;52.924;-2.388;2023-11-22T20:50:57;3.58;;;0.80;;
43803;SDS011;29430;52.924;-2.388;2023-11-22T20:55:48;2.20;;;0.50;;
43803;SDS011;29430;52.924;-2.388;2023-11-22T21:00:40;1.52;;;0.30;;
43803;SDS011;29430;52.924;-2.388;2023-11-22T21:05:32;1.58;;;0.20;;
43803;SDS011;29430;52.924;-2.388;2023-11-22T21:10:24;0.47;;;0.20;;
43803;SDS011;29430;52.924;-2.388;2023-11-22T21:15:16;1.98;;;0.20;;
43803;SDS011;29430;52.924;-2.388;2023-11-22T21:20:09;0.63;;;0.20;;
43803;SDS011;29430;52.924;-2.388;2023-11-22T21:25:05;0.60;;;0.20;;
43803;SDS011;29430;52.924;-2.388;2023-11-22T21:30:01;1.02;;;0.20;;
43803;SDS011;29430;52.924;-2.388;2023-11-22T21:34:53;2.10;;;0.30;;
43803;SDS011;29430;52.924;-2.388;2023-11-22T21:39:44;2.75;;;0.50;;
43803;SDS011;29430;52.924;-2.388;2023-11-22T21:44:37;1.55;;;0.30;;
43803;SDS011;29430;52.924;-2.388;2023-11-22T21:49:28;2.17;;;0.32;;
43803;SDS011;29430;52.924;-2.388;2023-11-22T21:54:22;0.60;;;0.13;;
43803;SDS011;29430;52.924;-2.388;2023-11-22T21:59:14;0.68;;;0.10;;
43803;SDS011;29430;52.924;-2.388;2023-11-22T22:04:06;1.95;;;0.20;;
43803;SDS011;29430;52.924;-2.388;2023-11-22T22:09:02;2.00;;;0.10;;
43803;SDS011;29430;52.924;-2.388;2023-11-22T22:13:58;2.30;;;0.15;;
43803;SDS011;29430;52.924;-2.388;2023-11-22T22:18:51;1.13;;;0.10;;
43803;SDS011;29430;52.924;-2.388;2023-11-22T22:23:43;1.08;;;0.20;;
43803;SDS011;29430;52.924;-2.388;2023-11-22T22:28:34;1.40;;;0.17;;
43803;SDS011;29430;52.924;-2.388;2023-11-22T22:33:27;0.57;;;0.10;;
43803;SDS011;29430;52.924;-2.388;2023-11-22T22:38:19;2.22;;;0.10;;
43803;SDS011;29430;52.924;-2.388;2023-11-22T22:43:10;1.50;;;0.20;;
43803;SDS011;29430;52.924;-2.388;2023-11-22T22:48:02;1.65;;;0.20;;
43803;SDS011;29430;52.924;-2.388;2023-11-22T22:52:55;1.30;;;0.20;;
43803;SDS011;29430;52.924;-2.388;2023-11-22T22:57:47;2.15;;;0.30;;
43803;SDS011;29430;52.924;-2.388;2023-11-22T23:02:39;1.92;;;0.20;;
43803;SDS011;29430;52.924;-2.388;2023-11-22T23:07:31;2.38;;;0.20;;
43803;SDS011;29430;52.924;-2.388;2023-11-22T23:12:23;2.85;;;0.30;;
43803;SDS011;29430;52.924;-2.388;2023-11-22T23:17:14;2.03;;;0.20;;
43803;SDS011;29430;52.924;-2.388;2023-11-22T23:22:06;3.25;;;0.20;;
43803;SDS011;29430;52.924;-2.388;2023-11-22T23:26:58;0.98;;;0.17;;
43803;SDS011;29430;52.924;-2.388;2023-11-22T23:31:51;0.93;;;0.20;;
43803;SDS011;29430;52.924;-2.388;2023-11-22T23:36:43;1.40;;;0.20;;
43803;SDS011;29430;52.924;-2.388;2023-11-22T23:41:36;1.77;;;0.15;;
43803;SDS011;29430;52.924;-2.388;2023-11-22T23:46:28;1.20;;;0.30;;
43803;SDS011;29430;52.924;-2.388;2023-11-22T23:51:28;1.38;;;0.20;;
43803;SDS011;29430;52.924;-2.388;2023-11-22T23:56:20;1.10;;;0.10;;
